Abu Dhabi, UAE

10:56 PM GST on July 24, 2014 (GMT +0400)
Abu Dhabi International (OMAA) Elev 89 ft | 24.43 °N, 54.65 °E | Change Station

Current weather conditions updated 56 minutes ago

Clear
Clear
93 °F
Feels Like 107 °F
N
8
Wind Variable Wind from WSW

Tomorrow is forecast to be Warmer than today.

Today
High -- | Low -- °F
--% Chance of Precip.
Yesterday
High -- | Low -- °F
Precip. -- in
5:46 AM 7:09 PM
Waning Crescent, 4% visible
Pressure 29.42 in
Visibility -9999.0 miles
Clouds
Heat Index 107 °F
Dew Point 77 °F
Humidity 59%
Rainfall 0.00 in
Snow Depth Not available.
UV Not available.
Pollen Not available.
Air Quality Not available.
Flu Activity Not available.
METAR OMAA 241800Z 24007KT CAVOK 34/25 Q0996 A2943 NOSIG

More Conditions Fewer Conditions

Pressure 29.42 in
Visibility -9999.0 miles
Clouds
Heat Index 107 °F
Dew Point 77 °F
Humidity 59%
Rainfall 0.00 in
Snow Depth Not available.
UV Not available.
Pollen Not available.
Air Quality Not available.
Flu Activity Not available.
METAR OMAA 241800Z 24007KT CAVOK 34/25 Q0996 A2943 NOSIG

More Conditions Fewer Conditions

10-Day Weather Forecast

Almanac

Astronomy

Jul. 24, 2014 Rise Set
Actual Time 5:46 AM GST 7:09 PM GST
Civil Twilight 5:21 AM GST 7:34 PM GST
Nautical Twilight 4:51 AM GST 8:03 PM GST
Astronomical Twilight 4:21 AM GST 8:34 PM GST
Moon 3:32 AM GST 5:08 PM GST
Length of Visible Light 14h 12m
Length of Day
13h 23m
Tomorrow will be 0m 53s shorter.
Waning Crescent, 4% of the Moon is Illuminated
Today
Waning Crescent
Jul 26
New
Aug 3
First Quarter
Aug 10
Full
Aug 17
Last Quarter

Today's Extremes

Country Highs Country Lows

Community

WunderPhotos

Upload Photos

1,737,091 photos uploaded!

Nearby

Snow Depth

Not available.

Earthquake Activity

City Distance Mag. Time & Date
No recent earthquake activity has been reported nearby.
Minimum magnitude displayed is 2.5.

Coastal Water Temperatures

Place Temperature
No Stations Reporting

Nearby Weather Stations

Station Location Temp. Heat Index Dew Point Humidity Wind Precip. Elev Updated Type
Khalifa City A, Abu Dhabi 93.4 °F 118 °F 83 °F 71% South  at  9.8 mph 0.00 in / hr 0 ft 10:55 PM GST Rapid Fire
Bel Ghailam island, %u0627%u0644%u0625%u0645%u0627%u0631%u0627%u062A %u0627%u0644%u0639%u0631%u0628%%U0627%U0644%U0625%U0645%U0627%U0631%U0627%U062A %U0627%U0644%U0639%U0631%U0628%91.2 91.2 °F 114 °F 82 °F 75% SSW  at  5.0 mph 0.00 in / hr 56 ft 10:55 PM GST Rapid Fire

Show More Stations Show Fewer Stations